createdAt,value
2018-08-10T00:00:01.577Z,19.1
2018-08-10T00:01:01.502Z,19.1
2018-08-10T00:02:04.681Z,19.1
2018-08-10T00:03:04.609Z,19
2018-08-10T00:04:25.889Z,19.1
2018-08-10T00:05:26.465Z,19.1
2018-08-10T00:06:32.281Z,19.2
2018-08-10T00:07:32.196Z,19.2
2018-08-10T00:08:36.212Z,19.1
2018-08-10T00:09:36.117Z,19.2
2018-08-10T00:10:36.037Z,19.2
2018-08-10T00:11:35.950Z,19.3
2018-08-10T00:12:41.428Z,19.3
2018-08-10T00:13:41.341Z,19.3
2018-08-10T00:14:46.039Z,19.3
2018-08-10T00:15:45.956Z,19.3
2018-08-10T00:16:45.856Z,19.2
2018-08-10T00:17:55.204Z,19.2
2018-08-10T00:18:55.110Z,19.2
2018-08-10T00:19:55.483Z,19.2
2018-08-10T00:20:55.415Z,19.1
2018-08-10T00:21:58.367Z,19.1
2018-08-10T00:22:58.277Z,19.1
2018-08-10T00:24:06.857Z,18.9
2018-08-10T00:25:08.198Z,18.9
2018-08-10T00:26:08.120Z,18.8
2018-08-10T00:27:08.263Z,18.8
2018-08-10T00:28:08.184Z,18.7
2018-08-10T00:29:08.102Z,18.7
2018-08-10T00:30:08.044Z,18.7
2018-08-10T00:31:07.950Z,18.7
2018-08-10T00:32:07.856Z,18.6
2018-08-10T00:33:07.983Z,18.6
2018-08-10T00:34:07.882Z,18.6
2018-08-10T00:35:08.504Z,18.6
2018-08-10T00:36:08.410Z,18.6
2018-08-10T00:37:08.338Z,18.6
2018-08-10T00:38:16.955Z,18.6
2018-08-10T00:39:16.858Z,18.6
2018-08-10T00:40:20.530Z,18.6
2018-08-10T00:41:20.454Z,18.6
2018-08-10T00:42:20.649Z,18.6
2018-08-10T00:43:30.663Z,18.6
2018-08-10T00:44:30.608Z,18.6
2018-08-10T00:45:31.213Z,18.6
2018-08-10T00:46:34.022Z,18.5
2018-08-10T00:47:34.199Z,18.5
2018-08-10T00:48:34.112Z,18.5
2018-08-10T00:49:41.055Z,18.5
2018-08-10T00:50:40.962Z,18.4
2018-08-10T00:51:40.894Z,18.4
2018-08-10T00:52:43.403Z,18.4
2018-08-10T00:53:43.529Z,18.5
2018-08-10T00:54:44.102Z,18.5
2018-08-10T00:55:45.530Z,18.5
2018-08-10T00:56:49.335Z,18.5
2018-08-10T00:57:53.055Z,18.5
2018-08-10T00:58:53.194Z,18.4
2018-08-10T00:59:59.651Z,18.4
2018-08-10T01:00:59.571Z,18.4
2018-08-10T01:02:02.266Z,18.2
2018-08-10T01:03:02.188Z,18.4
2018-08-10T01:04:05.887Z,18.3
2018-08-10T01:05:06.014Z,18.3
2018-08-10T01:06:13.158Z,18.2
2018-08-10T01:07:16.053Z,18.2
2018-08-10T01:08:19.218Z,18.2
2018-08-10T01:09:22.927Z,18.3
2018-08-10T01:10:22.902Z,18.3
2018-08-10T01:11:22.823Z,18.3
2018-08-10T01:12:26.489Z,18.4
2018-08-10T01:13:36.186Z,18.4
2018-08-10T01:14:38.525Z,18.5
2018-08-10T01:15:38.436Z,18.4
2018-08-10T01:16:38.395Z,18.5
2018-08-10T01:17:38.321Z,18.5
2018-08-10T01:18:38.335Z,18.4
2018-08-10T01:19:38.253Z,18.4
2018-08-10T01:20:38.224Z,18.5
2018-08-10T01:21:38.142Z,18.5
2018-08-10T01:22:43.864Z,18.5
2018-08-10T01:23:44.803Z,18.5
2018-08-10T01:24:48.076Z,18.5
2018-08-10T01:25:50.913Z,18.5
2018-08-10T01:26:50.853Z,18.5
2018-08-10T01:27:50.770Z,18.4
2018-08-10T01:28:51.228Z,18.5
2018-08-10T01:29:51.776Z,18.5
2018-08-10T01:30:52.672Z,18.6
2018-08-10T01:31:52.589Z,18.6
2018-08-10T01:32:52.730Z,18.5
2018-08-10T01:33:52.679Z,18.5
2018-08-10T01:34:53.063Z,18.5
2018-08-10T01:35:55.853Z,18.5
2018-08-10T01:36:58.436Z,18.5
2018-08-10T01:37:58.352Z,18.5
2018-08-10T01:38:58.530Z,18.4
2018-08-10T01:39:59.446Z,18.5
2018-08-10T01:40:59.392Z,18.5
2018-08-10T01:41:59.299Z,18.4
2018-08-10T01:43:01.999Z,18.4
2018-08-10T01:44:01.958Z,18.4
2018-08-10T01:45:02.556Z,18.4
2018-08-10T01:46:05.471Z,18.4
2018-08-10T01:47:05.363Z,18.4
2018-08-10T01:48:05.272Z,18.4
2018-08-10T01:49:05.452Z,18.4
2018-08-10T01:50:06.373Z,18.4
2018-08-10T01:51:07.274Z,18.4
2018-08-10T01:52:07.436Z,18.4
2018-08-10T01:53:07.342Z,18.5
2018-08-10T01:54:08.293Z,18.4
2018-08-10T01:55:12.777Z,18.4
2018-08-10T01:56:13.730Z,18.4
2018-08-10T01:57:19.325Z,18.3
2018-08-10T01:58:19.233Z,18.3
2018-08-10T01:59:19.376Z,18.3
2018-08-10T02:00:19.278Z,18.4
2018-08-10T02:01:19.189Z,18.4
2018-08-10T02:02:19.125Z,18.2
2018-08-10T02:03:19.730Z,18.2
2018-08-10T02:04:19.659Z,18.3
2018-08-10T02:05:22.581Z,18.4
2018-08-10T02:06:25.321Z,18.4
2018-08-10T02:07:25.220Z,18.4
2018-08-10T02:08:25.386Z,18.4
2018-08-10T02:09:25.319Z,18.4
2018-08-10T02:10:25.245Z,18.4
2018-08-10T02:11:25.147Z,18.4
2018-08-10T02:12:25.062Z,18.4
2018-08-10T02:13:25.180Z,18.3
2018-08-10T02:14:25.085Z,18.3
2018-08-10T02:15:29.282Z,18.3
2018-08-10T02:16:29.209Z,18.3
2018-08-10T02:17:29.143Z,18.3
2018-08-10T02:18:29.055Z,18.3
2018-08-10T02:19:29.003Z,18.3
2018-08-10T02:20:29.953Z,18.3
2018-08-10T02:21:29.873Z,18.3
2018-08-10T02:22:31.012Z,18.3
2018-08-10T02:23:30.929Z,18.3
2018-08-10T02:24:30.883Z,18.3
2018-08-10T02:25:31.472Z,18.3
2018-08-10T02:26:31.611Z,18.2
2018-08-10T02:27:31.742Z,18.2
2018-08-10T02:28:31.742Z,18.1
2018-08-10T02:29:31.668Z,18.1
2018-08-10T02:30:31.668Z,18.1
2018-08-10T02:31:31.583Z,18.2
2018-08-10T02:32:31.512Z,18.2
2018-08-10T02:33:31.443Z,18.1
2018-08-10T02:34:31.385Z,18.1
2018-08-10T02:35:32.002Z,18.1
2018-08-10T02:36:31.930Z,18.1
2018-08-10T02:37:31.887Z,18.1
2018-08-10T02:38:31.799Z,18.2
2018-08-10T02:39:34.675Z,18.1
2018-08-10T02:40:35.598Z,18
2018-08-10T02:41:35.587Z,18.1
2018-08-10T02:42:39.271Z,18.1
2018-08-10T02:43:39.204Z,18.1
2018-08-10T02:44:39.157Z,18.1
2018-08-10T02:45:40.533Z,18.1
2018-08-10T02:46:40.547Z,18.1
2018-08-10T02:47:40.472Z,18.1
2018-08-10T02:48:40.412Z,18.1
2018-08-10T02:49:40.339Z,18.2
2018-08-10T02:50:40.264Z,18.3
2018-08-10T02:51:40.392Z,18.3
2018-08-10T02:52:40.305Z,18.3
2018-08-10T02:53:43.059Z,18.3
2018-08-10T02:54:42.995Z,18.3
2018-08-10T02:55:44.614Z,18.4
2018-08-10T02:56:44.763Z,18.4
2018-08-10T02:57:44.670Z,18.4
2018-08-10T02:58:44.678Z,18.4
2018-08-10T02:59:44.583Z,18.4
2018-08-10T03:00:44.727Z,18.4
2018-08-10T03:01:44.656Z,18.3
2018-08-10T03:02:47.308Z,18.4
2018-08-10T03:03:47.223Z,18.3
2018-08-10T03:04:47.156Z,18.3
2018-08-10T03:05:47.572Z,18.3
2018-08-10T03:06:50.452Z,18.3
2018-08-10T03:07:51.387Z,18.4
2018-08-10T03:08:51.456Z,18.4
2018-08-10T03:09:51.606Z,18.4
2018-08-10T03:10:51.546Z,18.4
2018-08-10T03:11:51.476Z,18.4
2018-08-10T03:12:51.405Z,18.5
2018-08-10T03:13:54.319Z,18.5
2018-08-10T03:14:54.227Z,18.6
2018-08-10T03:15:54.648Z,18.5
2018-08-10T03:16:55.556Z,18.5
2018-08-10T03:17:56.483Z,18.5
2018-08-10T03:19:02.849Z,18.5
2018-08-10T03:20:02.784Z,18.5
2018-08-10T03:21:02.970Z,18.4
2018-08-10T03:22:03.002Z,18.4
2018-08-10T03:23:04.407Z,18.4
2018-08-10T03:24:04.335Z,18.4
2018-08-10T03:25:04.259Z,18.4
2018-08-10T03:26:06.626Z,18.4
2018-08-10T03:27:06.551Z,18.4
2018-08-10T03:28:06.480Z,18.4
2018-08-10T03:29:07.387Z,18.4
2018-08-10T03:30:08.349Z,18.3
2018-08-10T03:31:11.139Z,18.3
2018-08-10T03:32:11.098Z,18.3
2018-08-10T03:33:11.025Z,18.3
2018-08-10T03:34:14.487Z,18.3
2018-08-10T03:35:14.403Z,18.2
2018-08-10T03:36:14.977Z,18.2
2018-08-10T03:37:15.098Z,18.2
2018-08-10T03:38:15.217Z,18.1
2018-08-10T03:39:15.109Z,18.1
2018-08-10T03:40:15.233Z,18.1
2018-08-10T03:41:15.163Z,18.1
2018-08-10T03:42:15.096Z,18.1
2018-08-10T03:43:14.999Z,18.1
2018-08-10T03:44:14.940Z,18.2
2018-08-10T03:45:14.843Z,18.2
2018-08-10T03:46:15.415Z,18.2
2018-08-10T03:47:18.174Z,18.1
2018-08-10T03:48:18.109Z,18.2
2018-08-10T03:49:21.633Z,18.2
2018-08-10T03:50:24.396Z,18.1
2018-08-10T03:51:24.539Z,18.1
2018-08-10T03:52:24.444Z,18.2
2018-08-10T03:53:24.565Z,18.2
2018-08-10T03:54:24.488Z,18.2
2018-08-10T03:55:24.417Z,18.2
2018-08-10T03:56:25.004Z,18.2
2018-08-10T03:57:26.134Z,18.2
2018-08-10T03:58:26.043Z,18.2
2018-08-10T03:59:28.658Z,18.2
2018-08-10T04:00:28.570Z,18.3
2018-08-10T04:01:28.525Z,18.3
2018-08-10T04:02:28.436Z,18.2
2018-08-10T04:03:32.151Z,18.2
2018-08-10T04:04:32.052Z,18.1
2018-08-10T04:05:31.980Z,18.1
2018-08-10T04:06:32.574Z,18.1
2018-08-10T04:07:32.704Z,18.1
2018-08-10T04:08:35.356Z,18
2018-08-10T04:09:35.455Z,18
2018-08-10T04:10:35.346Z,18
2018-08-10T04:11:37.866Z,18
2018-08-10T04:12:40.586Z,17.9
2018-08-10T04:13:40.737Z,18
2018-08-10T04:14:40.639Z,18
2018-08-10T04:15:40.774Z,18.1
2018-08-10T04:16:41.393Z,18.1
2018-08-10T04:17:41.302Z,17.9
2018-08-10T04:18:41.223Z,17.9
2018-08-10T04:19:41.139Z,17.9
2018-08-10T04:20:41.071Z,17.7
2018-08-10T04:21:41.001Z,17.6
2018-08-10T04:22:40.950Z,17.5
2018-08-10T04:23:40.850Z,17.6
2018-08-10T04:24:40.761Z,17.6
2018-08-10T04:25:41.666Z,17.6
2018-08-10T04:26:42.229Z,17.5
2018-08-10T04:27:42.172Z,17.6
2018-08-10T04:28:42.316Z,17.5
2018-08-10T04:29:42.673Z,17.4
2018-08-10T04:30:43.549Z,17.3
2018-08-10T04:31:43.462Z,17.3
2018-08-10T04:32:44.615Z,17.4
2018-08-10T04:33:44.520Z,17.4
2018-08-10T04:34:44.441Z,17.3
2018-08-10T04:35:44.355Z,17.3
2018-08-10T04:36:44.911Z,17.2
2018-08-10T04:37:44.857Z,17.2
2018-08-10T04:38:44.774Z,17.1
2018-08-10T04:39:44.677Z,17.1
2018-08-10T04:40:44.591Z,17
2018-08-10T04:41:44.951Z,16.9
2018-08-10T04:42:44.883Z,16.9
2018-08-10T04:43:44.811Z,16.9
2018-08-10T04:44:44.715Z,16.9
2018-08-10T04:45:44.608Z,16.9
2018-08-10T04:46:44.959Z,16.8
2018-08-10T04:47:44.874Z,16.9
2018-08-10T04:48:47.725Z,16.8
2018-08-10T04:49:50.640Z,16.8
2018-08-10T04:50:50.574Z,16.7
2018-08-10T04:51:51.494Z,16.7
2018-08-10T04:52:51.415Z,16.8
2018-08-10T04:53:51.331Z,16.8
2018-08-10T04:54:52.234Z,16.8
2018-08-10T04:55:55.940Z,16.9
2018-08-10T04:56:56.275Z,16.8
2018-08-10T04:57:57.226Z,16.7
2018-08-10T04:58:57.144Z,16.8
2018-08-10T04:59:57.061Z,17
2018-08-10T05:00:56.957Z,17.1
2018-08-10T05:01:59.941Z,17.2
2018-08-10T05:02:59.878Z,17.3
2018-08-10T05:03:59.824Z,17.4
2018-08-10T05:04:59.756Z,17.5
2018-08-10T05:06:02.466Z,17.5
2018-08-10T05:07:06.909Z,17.6
2018-08-10T05:08:06.841Z,17.6
2018-08-10T05:09:06.967Z,17.7
2018-08-10T05:10:06.886Z,17.7
2018-08-10T05:11:06.809Z,17.6
2018-08-10T05:12:06.979Z,17.6
2018-08-10T05:13:09.661Z,17.6
2018-08-10T05:14:09.568Z,17.5
2018-08-10T05:15:12.205Z,17.5
2018-08-10T05:16:12.345Z,17.5
2018-08-10T05:17:12.704Z,17.5
2018-08-10T05:18:12.640Z,17.5
2018-08-10T05:19:12.570Z,17.5
2018-08-10T05:20:15.297Z,17.5
2018-08-10T05:21:18.157Z,17.5
2018-08-10T05:22:18.056Z,17.4
2018-08-10T05:23:17.986Z,17.4
2018-08-10T05:24:18.907Z,17.3
2018-08-10T05:25:18.813Z,17.2
2018-08-10T05:26:18.739Z,17.2
2018-08-10T05:27:19.095Z,17.1
2018-08-10T05:28:19.025Z,17
2018-08-10T05:29:20.209Z,17
2018-08-10T05:30:21.123Z,17
2018-08-10T05:31:21.031Z,17.1
2018-08-10T05:32:20.942Z,17
2018-08-10T05:33:20.865Z,17
2018-08-10T05:34:20.772Z,16.8
2018-08-10T05:35:20.690Z,16.8
2018-08-10T05:36:20.594Z,16.9
2018-08-10T05:37:20.934Z,16.9
2018-08-10T05:38:20.844Z,17
2018-08-10T05:39:20.763Z,16.8
2018-08-10T05:40:20.723Z,16.7
2018-08-10T05:41:20.607Z,16.7
2018-08-10T05:42:20.539Z,16.8
2018-08-10T05:43:20.435Z,16.8
2018-08-10T05:44:23.537Z,16.8
2018-08-10T05:45:23.455Z,16.8
2018-08-10T05:46:23.498Z,16.8
2018-08-10T05:47:24.869Z,16.8
2018-08-10T05:48:24.774Z,16.7
2018-08-10T05:49:24.804Z,16.8
2018-08-10T05:50:24.816Z,16.7
2018-08-10T05:51:25.530Z,16.7
2018-08-10T05:52:25.579Z,16.8
2018-08-10T05:53:25.678Z,16.7
2018-08-10T05:54:26.594Z,16.7
2018-08-10T05:55:26.717Z,16.7
2018-08-10T05:56:26.610Z,16.7
2018-08-10T05:57:27.091Z,16.8
2018-08-10T05:58:27.254Z,16.8
2018-08-10T05:59:27.186Z,16.7
2018-08-10T06:00:27.111Z,16.7
2018-08-10T06:01:27.006Z,16.7
2018-08-10T06:02:26.908Z,16.6
2018-08-10T06:03:27.273Z,16.5
2018-08-10T06:04:27.760Z,16.5
2018-08-10T06:05:28.686Z,16.5
2018-08-10T06:06:28.577Z,16.5
2018-08-10T06:07:35.811Z,16.6
2018-08-10T06:08:35.863Z,16.7
2018-08-10T06:09:35.773Z,16.7
2018-08-10T06:10:38.593Z,16.7
2018-08-10T06:12:24.614Z,16.7
2018-08-10T06:13:24.575Z,16.7
2018-08-10T06:14:30.154Z,16.7
2018-08-10T06:15:30.393Z,16.7
2018-08-10T06:16:31.406Z,16.6
2018-08-10T06:17:35.123Z,16.6
2018-08-10T06:18:35.558Z,16.5
2018-08-10T06:19:36.121Z,16.5
2018-08-10T06:20:37.331Z,16.6
2018-08-10T06:21:37.737Z,16.6
2018-08-10T06:22:37.981Z,16.6
2018-08-10T06:23:39.110Z,16.6
2018-08-10T06:24:39.010Z,16.6
2018-08-10T06:25:41.908Z,16.6
2018-08-10T06:26:42.052Z,16.6
2018-08-10T06:27:42.868Z,16.6
2018-08-10T06:28:43.990Z,16.5
2018-08-10T06:29:44.705Z,16.5
2018-08-10T06:30:44.613Z,16.6
2018-08-10T06:31:44.515Z,16.6
2018-08-10T06:32:44.642Z,16.6
2018-08-10T06:33:44.904Z,16.5
2018-08-10T06:34:45.145Z,16.5
2018-08-10T06:35:48.028Z,16.6
2018-08-10T06:36:48.629Z,16.5
2018-08-10T06:37:54.376Z,16.6
2018-08-10T06:38:58.767Z,16.6
2018-08-10T06:39:58.672Z,16.6
2018-08-10T06:41:02.729Z,16.5
2018-08-10T06:42:02.904Z,16.6
2018-08-10T06:43:02.820Z,16.5
2018-08-10T06:44:03.185Z,16.4
2018-08-10T06:45:03.864Z,16.5
2018-08-10T06:46:04.985Z,16.4
2018-08-10T06:47:04.916Z,16.4
2018-08-10T06:48:07.667Z,16.4
2018-08-10T06:49:08.457Z,16.5
2018-08-10T06:50:08.526Z,16.5
2018-08-10T06:51:09.024Z,16.4
2018-08-10T06:52:10.086Z,16.4
2018-08-10T06:53:13.124Z,16.1
2018-08-10T06:54:13.305Z,16.1
2018-08-10T06:55:18.764Z,16.1
2018-08-10T06:56:19.118Z,16.2
2018-08-10T06:57:19.296Z,16.2
2018-08-10T06:58:19.198Z,16.2
2018-08-10T06:59:19.655Z,16.3
2018-08-10T07:00:20.258Z,16.2
2018-08-10T07:01:20.307Z,16.2
2018-08-10T07:02:20.329Z,16
2018-08-10T07:03:21.233Z,16
2018-08-10T07:04:21.140Z,16.1
2018-08-10T07:05:23.617Z,16.1
2018-08-10T07:06:32.269Z,16.2
2018-08-10T07:07:32.745Z,16.2
2018-08-10T07:08:33.219Z,16.2
2018-08-10T07:09:33.579Z,16.3
2018-08-10T07:10:33.479Z,16.3
2018-08-10T07:11:33.398Z,16.4
2018-08-10T07:12:33.300Z,16.3
2018-08-10T07:13:33.480Z,16.3
2018-08-10T07:14:38.000Z,16.4
2018-08-10T07:15:37.928Z,16.4
2018-08-10T07:16:42.620Z,16.4
2018-08-10T07:17:42.543Z,16.2
2018-08-10T07:18:45.369Z,16.1
2018-08-10T07:19:45.960Z,16.1
2018-08-10T07:20:48.436Z,16.1
2018-08-10T07:21:48.362Z,16.2
2018-08-10T07:22:48.301Z,16.2
2018-08-10T07:23:48.423Z,16.2
2018-08-10T07:24:51.476Z,16.2
2018-08-10T07:25:51.378Z,16.1
2018-08-10T07:26:54.278Z,16.1
2018-08-10T07:27:55.253Z,16.1
2018-08-10T07:28:55.464Z,16.1
2018-08-10T07:29:56.918Z,16.1
2018-08-10T07:30:56.852Z,16.1
2018-08-10T07:32:00.010Z,15.9
2018-08-10T07:32:59.948Z,16
2018-08-10T07:34:08.852Z,16.1
2018-08-10T07:35:08.991Z,16.1
2018-08-10T07:36:11.745Z,16
2018-08-10T07:37:11.664Z,16
2018-08-10T07:38:18.333Z,16
2018-08-10T07:39:18.251Z,16
2018-08-10T07:40:21.518Z,16.1
2018-08-10T07:41:25.204Z,16.1
2018-08-10T07:42:28.140Z,16.1
2018-08-10T07:43:28.291Z,16
2018-08-10T07:44:29.437Z,16
2018-08-10T07:45:29.344Z,15.9
2018-08-10T07:46:29.493Z,15.9
2018-08-10T07:47:29.964Z,16
2018-08-10T07:48:30.911Z,16
2018-08-10T07:49:31.509Z,16.1
2018-08-10T07:50:31.876Z,16.1
2018-08-10T07:51:31.791Z,16.1
2018-08-10T07:52:32.713Z,16
2018-08-10T07:53:35.634Z,15.9
2018-08-10T07:54:35.541Z,16
2018-08-10T07:55:48.315Z,16
2018-08-10T07:56:54.023Z,16
2018-08-10T07:57:54.148Z,16
2018-08-10T07:59:00.117Z,15.9
2018-08-10T08:00:04.172Z,15.9
2018-08-10T08:01:06.113Z,15.9
2018-08-10T08:02:06.040Z,15.9
2018-08-10T08:03:06.509Z,15.9
2018-08-10T08:04:07.238Z,16.1
2018-08-10T08:05:07.157Z,16
2018-08-10T08:06:07.188Z,16
2018-08-10T08:07:08.012Z,16
2018-08-10T08:08:08.274Z,16
2018-08-10T08:09:08.198Z,16.1
2018-08-10T08:10:08.104Z,16
2018-08-10T08:11:08.482Z,15.9
2018-08-10T08:12:08.383Z,15.9
2018-08-10T08:13:08.286Z,15.8
2018-08-10T08:14:11.178Z,15.8
2018-08-10T08:15:11.106Z,15.8
2018-08-10T08:16:11.019Z,15.8
2018-08-10T08:17:10.911Z,15.7
2018-08-10T08:18:10.819Z,15.7
2018-08-10T08:19:10.722Z,15.8
2018-08-10T08:20:10.648Z,15.8
2018-08-10T08:21:11.014Z,15.8
2018-08-10T08:22:10.923Z,15.8
2018-08-10T08:23:13.121Z,15.8
2018-08-10T08:24:13.020Z,15.9
2018-08-10T08:25:13.235Z,15.9
2018-08-10T08:26:13.208Z,15.9
2018-08-10T08:27:13.681Z,15.9
2018-08-10T08:28:15.166Z,15.9
2018-08-10T08:29:15.307Z,16
2018-08-10T08:30:16.228Z,16
2018-08-10T08:31:22.202Z,16
2018-08-10T08:32:22.095Z,16.1
2018-08-10T08:33:23.002Z,16
2018-08-10T08:34:22.906Z,16.1
2018-08-10T08:35:22.830Z,16.2
2018-08-10T08:36:22.733Z,16.2
2018-08-10T08:37:22.652Z,16.2
2018-08-10T08:38:22.845Z,16.2
2018-08-10T08:39:23.165Z,16.2
2018-08-10T08:40:34.765Z,16.2
2018-08-10T08:41:35.771Z,16.1
2018-08-10T08:42:38.480Z,15.9
2018-08-10T08:43:38.384Z,16
2018-08-10T08:44:38.291Z,16
2018-08-10T08:45:38.625Z,16.1
2018-08-10T08:46:40.523Z,16.2
2018-08-10T08:47:41.299Z,16.2
2018-08-10T08:48:41.324Z,16.2
2018-08-10T08:49:41.241Z,16.2
2018-08-10T08:50:41.168Z,16.1
2018-08-10T08:51:41.520Z,16
2018-08-10T08:52:41.438Z,16
2018-08-10T08:53:41.347Z,16
2018-08-10T08:54:41.260Z,16.1
2018-08-10T08:55:41.172Z,16.1
2018-08-10T08:56:41.101Z,16.1
2018-08-10T08:57:41.027Z,16.1
2018-08-10T08:58:40.947Z,16
2018-08-10T08:59:40.849Z,16.2
2018-08-10T09:00:40.767Z,16.3
2018-08-10T09:01:44.089Z,16.2
2018-08-10T09:02:43.997Z,16.2
2018-08-10T09:03:43.908Z,16.3
2018-08-10T09:04:43.813Z,16.4
2018-08-10T09:05:43.718Z,16.3
2018-08-10T09:06:43.627Z,16.3
2018-08-10T09:07:43.863Z,16.3
2018-08-10T09:08:44.219Z,16.3
2018-08-10T09:09:44.118Z,16.3
2018-08-10T09:10:44.050Z,16.3
2018-08-10T09:11:44.419Z,16.3
2018-08-10T09:12:44.314Z,16.3
2018-08-10T09:13:44.252Z,16.3
2018-08-10T09:14:44.148Z,16.3
2018-08-10T09:15:44.062Z,16.3
2018-08-10T09:16:43.990Z,16.4
2018-08-10T09:17:44.318Z,16.5
2018-08-10T09:18:44.238Z,16.5
2018-08-10T09:19:44.159Z,16.5
2018-08-10T09:20:44.059Z,16.4
2018-08-10T09:21:44.501Z,16.5
2018-08-10T09:22:44.415Z,16.5
2018-08-10T09:23:44.331Z,16.5
2018-08-10T09:24:44.240Z,16.4
2018-08-10T09:25:44.144Z,16.4
2018-08-10T09:26:44.070Z,16.4
2018-08-10T09:27:44.004Z,16.5
2018-08-10T09:28:43.929Z,16.5
2018-08-10T09:29:43.831Z,16.5
2018-08-10T09:30:46.752Z,16.4
2018-08-10T09:31:47.120Z,16.4
2018-08-10T09:32:47.049Z,16.4
2018-08-10T09:33:46.972Z,16.4
2018-08-10T09:34:47.891Z,16.5
2018-08-10T09:35:47.806Z,16.5
2018-08-10T09:36:47.733Z,16.5
2018-08-10T09:37:47.652Z,16.6
2018-08-10T09:38:47.584Z,16.7
2018-08-10T09:39:47.498Z,16.8
2018-08-10T09:40:47.412Z,16.8
2018-08-10T09:41:47.766Z,16.9
2018-08-10T09:42:47.710Z,16.9
2018-08-10T09:43:47.611Z,16.8
2018-08-10T09:44:47.516Z,16.8
2018-08-10T09:45:47.430Z,16.7
2018-08-10T09:46:47.336Z,16.5
2018-08-10T09:47:47.245Z,16.5
2018-08-10T09:48:47.192Z,16.5
2018-08-10T09:49:47.123Z,16.4
2018-08-10T09:50:47.038Z,16.4
2018-08-10T09:51:47.599Z,16.4
2018-08-10T09:52:47.713Z,16.4
2018-08-10T09:53:47.636Z,16.2
2018-08-10T09:54:47.548Z,16.1
2018-08-10T09:55:47.451Z,16.2
2018-08-10T09:56:47.368Z,16.2
2018-08-10T09:57:47.610Z,16.2
2018-08-10T09:58:47.685Z,16.2
2018-08-10T09:59:47.732Z,16.2
2018-08-10T10:00:47.874Z,16.3
2018-08-10T10:01:48.230Z,16.4
2018-08-10T10:02:48.127Z,16.4
2018-08-10T10:03:48.023Z,16.4
2018-08-10T10:04:47.947Z,16.4
2018-08-10T10:05:47.875Z,16.3
2018-08-10T10:06:50.667Z,16.3
2018-08-10T10:07:50.570Z,16.3
2018-08-10T10:08:50.473Z,16.2
2018-08-10T10:09:50.394Z,16.3
2018-08-10T10:10:50.324Z,16.3
2018-08-10T10:11:53.674Z,16.4
2018-08-10T10:12:53.581Z,16.5
2018-08-10T10:13:53.482Z,16.5
2018-08-10T10:14:53.388Z,16.4
2018-08-10T10:15:53.315Z,16.4
2018-08-10T10:16:53.233Z,16.5
2018-08-10T10:17:53.163Z,16.5
2018-08-10T10:18:53.065Z,16.6
2018-08-10T10:19:55.949Z,16.5
2018-08-10T10:20:56.017Z,16.7
2018-08-10T10:21:56.589Z,16.6
2018-08-10T10:22:56.493Z,16.6
2018-08-10T10:23:56.397Z,16.7
2018-08-10T10:24:56.630Z,16.8
2018-08-10T10:25:56.828Z,16.8
2018-08-10T10:26:56.954Z,16.8
2018-08-10T10:27:57.189Z,16.9
2018-08-10T10:28:57.297Z,16.9
2018-08-10T10:30:00.891Z,16.9
2018-08-10T10:31:00.820Z,16.8
2018-08-10T10:32:01.197Z,16.8
2018-08-10T10:33:01.229Z,16.9
2018-08-10T10:34:01.217Z,16.9
2018-08-10T10:35:01.149Z,16.9
2018-08-10T10:36:01.115Z,16.9
2018-08-10T10:37:01.020Z,16.9
2018-08-10T10:38:00.929Z,16.9
2018-08-10T10:39:03.559Z,16.9
2018-08-10T10:40:03.472Z,16.9
2018-08-10T10:41:03.394Z,16.8
2018-08-10T10:42:04.267Z,16.6
2018-08-10T10:43:04.874Z,16.6
2018-08-10T10:44:11.383Z,16.7
2018-08-10T10:45:14.989Z,16.7
2018-08-10T10:46:18.814Z,16.7
2018-08-10T10:47:18.994Z,16.6
2018-08-10T10:48:19.099Z,16.7
2018-08-10T10:49:22.017Z,16.8
2018-08-10T10:50:21.919Z,16.7
2018-08-10T10:51:21.849Z,16.8
2018-08-10T10:52:22.207Z,16.8
2018-08-10T10:53:22.115Z,16.8
2018-08-10T10:54:22.152Z,16.8
2018-08-10T10:55:22.464Z,16.9
2018-08-10T10:56:22.690Z,16.9
2018-08-10T10:57:22.741Z,17
2018-08-10T10:58:22.667Z,17
2018-08-10T10:59:22.634Z,17.1
2018-08-10T11:00:22.575Z,17
2018-08-10T11:01:25.146Z,17
2018-08-10T11:02:27.116Z,16.9
2018-08-10T11:03:27.023Z,16.9
2018-08-10T11:04:26.933Z,16.7
2018-08-10T11:05:26.846Z,16.7
2018-08-10T11:06:27.126Z,16.8
2018-08-10T11:07:30.939Z,16.8
2018-08-10T11:08:30.860Z,16.9
2018-08-10T11:09:30.775Z,16.9
2018-08-10T11:10:30.674Z,16.9
2018-08-10T11:11:30.585Z,16.9
2018-08-10T11:12:30.931Z,16.8
2018-08-10T11:13:32.029Z,16.9
2018-08-10T11:14:31.935Z,17.1
2018-08-10T11:15:31.838Z,17.2
2018-08-10T11:16:31.783Z,17.2
2018-08-10T11:17:31.923Z,17.2
2018-08-10T11:18:31.825Z,17.1
2018-08-10T11:19:31.729Z,17.1
2018-08-10T11:20:31.639Z,17.1
2018-08-10T11:21:31.557Z,17.1
2018-08-10T11:22:35.126Z,17.1
2018-08-10T11:23:35.026Z,17.2
2018-08-10T11:24:34.937Z,17.2
2018-08-10T11:25:36.032Z,17.2
2018-08-10T11:26:36.467Z,17.2
2018-08-10T11:27:36.394Z,17.1
2018-08-10T11:28:36.474Z,17.1
2018-08-10T11:29:36.371Z,17.1
2018-08-10T11:30:37.304Z,17
2018-08-10T11:31:37.250Z,17.1
2018-08-10T11:32:41.431Z,17.2
2018-08-10T11:33:41.347Z,17.2
2018-08-10T11:34:42.247Z,17.3
2018-08-10T11:35:45.000Z,17.3
2018-08-10T11:36:45.381Z,17.4
2018-08-10T11:37:50.446Z,17.3
2018-08-10T11:38:53.435Z,17.3
2018-08-10T11:39:53.352Z,17.3
2018-08-10T11:40:53.248Z,17.3
2018-08-10T11:41:56.907Z,17.3
2018-08-10T11:42:58.491Z,17.4
2018-08-10T11:43:59.409Z,17.4
2018-08-10T11:44:59.792Z,17.5
2018-08-10T11:45:59.995Z,17.5
2018-08-10T11:46:59.939Z,17.5
2018-08-10T11:48:45.087Z,17.4
2018-08-10T11:50:06.449Z,17.5
2018-08-10T11:51:16.043Z,17.5
2018-08-10T11:52:17.045Z,17.4
2018-08-10T11:53:16.976Z,17.4
2018-08-10T11:54:18.432Z,17.3
2018-08-10T11:55:19.011Z,17.4
2018-08-10T11:56:19.173Z,17.5
2018-08-10T11:57:20.302Z,17.5
2018-08-10T11:58:20.392Z,17.5
2018-08-10T11:59:20.313Z,17.6
2018-08-10T12:00:20.260Z,17.6
2018-08-10T12:01:20.185Z,17.5
2018-08-10T12:02:20.097Z,17.5
2018-08-10T12:03:23.007Z,17.5
2018-08-10T12:04:25.341Z,17.5
2018-08-10T12:05:26.479Z,17.4
2018-08-10T12:06:26.668Z,17.5
2018-08-10T12:07:27.632Z,17.5
2018-08-10T12:08:30.664Z,17.5
2018-08-10T12:09:31.583Z,17.6
2018-08-10T12:10:32.494Z,17.5
2018-08-10T12:11:32.409Z,17.6
2018-08-10T12:12:36.840Z,17.7
2018-08-10T12:13:39.983Z,17.6
2018-08-10T12:14:43.319Z,17.6
2018-08-10T12:15:43.693Z,17.6
2018-08-10T12:16:48.611Z,17.6
2018-08-10T12:17:53.330Z,17.5
2018-08-10T12:18:53.241Z,17.4
2018-08-10T12:19:54.455Z,17.4
2018-08-10T12:20:57.018Z,17.4
2018-08-10T12:21:59.681Z,17.6
2018-08-10T12:23:05.084Z,17.6
2018-08-10T12:24:05.268Z,17.6
2018-08-10T12:25:06.877Z,17.7
2018-08-10T12:26:06.800Z,17.8
2018-08-10T12:27:09.429Z,17.8
2018-08-10T12:28:09.362Z,17.9
2018-08-10T12:29:09.291Z,17.9
2018-08-10T12:30:12.427Z,18
2018-08-10T12:31:12.648Z,18
2018-08-10T12:32:12.560Z,18
2018-08-10T12:33:12.500Z,18
2018-08-10T12:34:12.410Z,18.1
2018-08-10T12:35:12.756Z,18.1
2018-08-10T12:36:12.665Z,18.2
2018-08-10T12:37:12.600Z,18
2018-08-10T12:38:15.197Z,18
2018-08-10T12:39:15.101Z,18.1
2018-08-10T12:40:15.020Z,18.1
2018-08-10T12:41:15.942Z,18.1
2018-08-10T12:42:15.857Z,18.1
2018-08-10T12:43:15.773Z,17.9
2018-08-10T12:44:15.687Z,17.8
2018-08-10T12:45:16.048Z,17.8
2018-08-10T12:46:15.964Z,17.9
2018-08-10T12:47:15.881Z,17.9
2018-08-10T12:48:15.795Z,17.9
2018-08-10T12:49:15.743Z,18
2018-08-10T12:50:19.184Z,17.9
2018-08-10T12:51:19.504Z,17.8
2018-08-10T12:52:19.906Z,17.9
2018-08-10T12:53:19.813Z,17.8
2018-08-10T12:54:23.593Z,17.8
2018-08-10T12:55:37.554Z,17.9
2018-08-10T12:56:41.315Z,17.9
2018-08-10T12:57:43.807Z,17.8
2018-08-10T12:58:47.094Z,17.8
2018-08-10T12:59:47.018Z,17.8
2018-08-10T13:00:47.611Z,17.8
2018-08-10T13:01:53.893Z,17.8
2018-08-10T13:02:58.413Z,17.8
2018-08-10T13:04:05.376Z,17.7
2018-08-10T13:05:05.984Z,17.7
2018-08-10T13:06:13.214Z,17.7
2018-08-10T13:07:16.925Z,17.7
2018-08-10T13:08:20.640Z,17.6
2018-08-10T13:09:24.220Z,17.6
2018-08-10T13:10:28.987Z,17.5
2018-08-10T13:11:31.806Z,17.4
2018-08-10T13:12:31.719Z,17.4
2018-08-10T13:13:31.645Z,17.4
2018-08-10T13:14:31.552Z,17.3
2018-08-10T13:15:34.210Z,17.4
2018-08-10T13:16:40.844Z,17.4
2018-08-10T13:17:43.337Z,17.3
2018-08-10T13:18:44.250Z,17.4
2018-08-10T13:19:45.387Z,17.3
2018-08-10T13:20:48.995Z,17.4
2018-08-10T13:21:48.900Z,17.4
2018-08-10T13:22:48.799Z,17.4
2018-08-10T13:23:49.803Z,17.3
2018-08-10T13:24:50.185Z,17.2
2018-08-10T13:25:50.124Z,17.2
2018-08-10T13:26:51.630Z,17.2
2018-08-10T13:27:51.548Z,17.2
2018-08-10T13:28:51.452Z,17.1
2018-08-10T13:29:51.421Z,17
2018-08-10T13:30:51.590Z,17.1
2018-08-10T13:31:51.496Z,17.2
2018-08-10T13:32:51.403Z,17.1
2018-08-10T13:33:51.316Z,17.1
2018-08-10T13:34:51.220Z,17.2
2018-08-10T13:35:51.135Z,17.2
2018-08-10T13:36:54.091Z,17.2